Extreme weather reports worldwide

Atmospheric pressure

Low pressure

Station
 
Location
 
Name
 
Wind
Knots
Gust
Knots
Vis
SM
Temp/Dew
C
Baro
inHg
METAR
 
DYR UHMA Anadyr, RU Ugolny Airport 27 37 0.43 -5/-6 27.99 UHMA 251300Z 25014G19MPS 0700 0500S R01/0500U +SN BLSN SCT005 BKN018 OVC026 M05/M06 Q0948 RESHSN R01/////// NOSIG RMK TDZ R01/25014G19MPS END R01/24011G15MPS QFE707/0943
UAK BGBW Narsarsuaq, GL Narsarsuaq Airport 20 30 6.21 4/-7 28.35 BGBW 251250Z 06020G30KT 9999 BKN095 04/M07 Q0960
SFJ BGSF Kangerlussuaq, GL Kangerlussuaq Airport 16 26 -1/-7 28.52 BGSF 251250Z AUTO 07016G26KT 050V120 9999NDV -SHSN FEW029/// OVC050/// M01/M07 Q0966
GAM PAGM Gambell, US Gambell Airport 11 10 0/-1 28.53 PAGM 251256Z AUTO 16011KT 10SM FEW016 M01/M02 A2853 RMK AO2 UPB24E44 SLP667 P0000 T10061017 FZRANO
KWT PFKW Kwethluk, US Kwethluk Airport 13 10 3/1 28.55 PFKW 251256Z AUTO 12013KT 10SM -RA OVC042 03/01 A2855 RMK AO2 SLP668 P0001 T00330011

Station
 
Location
 
Name
 
Wind
Knots
Gust
Knots
Vis
SM
Temp/Dew
C
Baro
inHg
METAR
 
SVA PASA Savoonga, US Savoonga Airport 12 10 0/-2 28.55 PASA 251256Z AUTO 19012KT 10SM CLR 01/M02 A2855 RMK AO2 RAB09E22 SLP669 P0000 T00061022 FZRANO
PPIT 10 10 2/2 28.56 PPIT 251256Z AUTO 14010KT 10SM -RA OVC021 02/02 A2856 RMK AO2 RAE17B50UPB17E18B45E50SNB18E45 SLP673 P0004 T00220022 FZRANO TSNO
BET PABE Bethel, US Bethel Airport 13 10 2/1 28.56 PABE 251253Z 12013KT 10SM -RA OVC030 03/01 A2856 RMK AO2 SLP671 P0006 T00280011
KSM PASM St Mary's, US St Mary's Airport 12 10 1/1 28.59 PASM 251312Z AUTO 12012KT 10SM -RA FEW008 OVC013 01/01 A2859 RMK AO2 P0000 FZRANO
KWN PAQH Quinhagak, US Quinhagak Airport 25 32 2.5 0/0 28.60 PAQH 251308Z AUTO 26025G32KT 2 1/2SM -SN BR OVC008 00/00 A2860 RMK AO2 PK WND 26032/1306 CIG 005V011 P0000 FZRANO
CLP PFCL Clarks Point, US Clarks Point Airport 23 32 9 3/3 28.60 PFCL 251256Z AUTO 14023G32KT 9SM -RA OVC005 04/03 A2860 RMK AO2 PK WND 14033/1211 SLP679 P0000 T00390033 TSNO
KMO PAMB Manokotak, US Manokotak Airport 16 22 2.5 3/2 28.60 PAMB 251256Z AUTO 14016G22KT 2 1/2SM -RA BR OVC004 03/03 A2860 RMK AO2 PK WND 14026/1228 SLP689 P0009 T00330028 $
CZF PACZ Cape Romanzof, US Cape Romanzof LRRS Airport 3 10 0/0 28.61 PACZ 251305Z AUTO 30003KT 10SM -SHRA FEW008 BKN043 00/00 A2861 RMK AO2 SLP692
DLG PADL Dillingham, US Dillingham Airport 19 25 10 3/2 28.62 PADL 251256Z AUTO 13019G25KT 10SM -RA OVC008 03/03 A2862 RMK AO2 PK WND 13029/1217 CIG 007V011 SLP694 P0001 T00330028
RSH PARS Russian Mission, US Russian Mission Airport 6 15 10 2/1 28.63 PARS 251309Z AUTO 10006G15KT 10SM OVC016 02/01 A2863 RMK AO2 PWINO FZRANO $
TNC PATC Tin City, US Tin City Long Range Radar Station Airport 30 36 6 1/0 28.63 PATC 251308Z AUTO 15030G36KT 6SM -RASN FEW013 OVC026 01/00 A2863 RMK AO2 SLP696
HPB PAHP Hooper Bay, US Hooper Bay Airport 13 10 1/0 28.64 PAHP 251312Z AUTO 29013KT 10SM BKN024 BKN035 01/00 A2864 RMK AO2 FZRANO $
VAK PAVA Chevak, US Chevak Airport 9 6 0/-1 28.64 PAVA 251310Z AUTO 28009KT 6SM UP BR FEW009 BKN025 OVC055 00/M01 A2864 RMK AO2 P0000 FZRANO
TLA PATE Teller, US Teller Airport 15 3 -1/-1 28.65 PATE 251308Z AUTO 10015KT 3SM -SN BR BKN003 BKN007 OVC020 M01/M01 A2865 RMK AO2 P0000 FZRANO
SCM PACM Scammon Bay, US Scammon Bay Airport 8 4 0/0 28.65 PACM 251308Z AUTO 25008KT 4SM -SN BR FEW015 BKN020 OVC034 00/00 A2865 RMK AO2 FZRANO PNO $
OME PAOM Nome, US Nome Airport / 28.66 PAOM 251253Z AUTO A2866 RMK AO2 SLP707 PWINO FZRANO TSNO $
OOK PAOO Toksook Bay, US Toksook Bay Airport 12 10 1/0 28.68 PAOO 251307Z AUTO 26012KT 10SM FEW021 BKN027 OVC120 01/00 A2868 RMK AO2 FZRANO TSNO $
AKN PAKN King Salmon, US King Salmon Airport 14 22 3 4/2 28.68 PAKN 251254Z 11014G22KT 3SM -RA BR FEW036 BKN090 04/03 A2868 RMK AO2 SLP712 P0003 T00440028 $
PTU PAPM Platinum, US Platinum Airport 21 27 6 1/0 28.70 PAPM 251308Z AUTO 30021G27KT 6SM -SN BR SCT010 BKN019 OVC030 01/00 A2870 RMK AO2 PK WND 29028/1259 RAE1259SNB1259 P0000 FZRANO
SMK PAMK St Michael, US St Michael Airport 18 25 10 1/-1 28.70 PAMK 251256Z AUTO 11018G25KT 10SM OVC070 01/M02 A2870 RMK AO2 SLP720 T00111017 FZRANO
JAV BGJN Ilulissat, GL Ilulissat Airport 13 6.21 -2/-11 28.70 BGJN 251250Z 12013KT 9999 BKN054 M02/M11 Q0972
KNW PANW New Stuyahok, US New Stuyahok Airport 21 30 5 / 28.71 PANW 251309Z AUTO 10021G30KT 5SM -RA OVC028 A2871 RMK AO2 PK WND 10030/1300 P0000 FZRANO $
ANV PANV Anvik, US Anvik Airport 10 9 0/-1 28.71 PANV 251256Z AUTO 04010KT 9SM -SN OVC035 M01/M02 A2871 RMK AO2 SLP781 P0000 T10061017 FZRANO TSNO
EHM PAEH Cape Newenham, US Cape Newenham LRRS Airport 19 26 10 1/0 28.71 PAEH 251255Z AUTO 32019G26KT 260V030 10SM OVC013 02/00 A2871 RMK AO2 PK WND 30036/1209 SNB1133E1244RAB1244E1245 SLP726 T00170001
EGX PAII Egegik, US Egegik Airport 12 17 2.5 3/3 28.72 PAII 251309Z AUTO 19012G17KT 2 1/2SM -RA BR BKN007 BKN013 OVC023 03/03 A2872 RMK AO2 CIG 007V010 P0001
WMO PAWM White Mountain, US White Mountain Airport 21 33 0.75 0/0 28.74 PAWM 251256Z AUTO 11021G33KT 3/4SM -SN BR OVC005 M01/M01 A2874 RMK AO2 PK WND 11036/1230 CIG 004V011 SLP736 P0000 T10061006 FZRANO
ANI PANI Aniak, US Aniak Airport 19 30 10 4/0 28.74 PANI 251256Z AUTO 15019G30KT 10SM OVC031 04/00 A2874 RMK AO2 PK WND 14031/1245 SLP726 T00440000
GLV PAGL Golovin, US Golovin Airport 30 35 0/-1 28.75 PAGL 251256Z AUTO 11030G35KT CLR M01/M01 A2875 RMK AO2 PK WND 11035/1255 SLPNO T10061011 PWINO FZRANO $
SKK PFSH Shaktoolik, US Shaktoolik Airport 30 38 10 1/-1 28.77 PFSH 251256Z AUTO 11030G38KT 10SM FEW060 OVC080 02/M02 A2877 RMK AO2 PK WND 11042/1220 SLP744 T00171017 FZRANO
KGK PAJZ Koliganek, US Koliganek Airport 39 46 5 3/1 28.79 PAJZ 251304Z AUTO 12039G46KT 5SM -RA BR BKN011 BKN016 OVC031 03/01 A2879 RMK AO2 PK WND 13046/1257 P0000 $
SVW PASV Sparrevohn, US Sparrevohn LRRS Airport 26 46 10 4/-3 28.79 PASV 251255Z AUTO 14026G46KT 10SM -RA BKN045 BKN130 04/M04 A2879 RMK AO2 PK WND 13055/1237 SHRAB1107E1231 SLP759 P0000 T00411038 $
ELI PFEL Elim, US Elim Airport 8 15 7 0/-1 28.81 PFEL 251256Z AUTO 07008G15KT 7SM -SN SCT010 SCT014 OVC023 M01/M01 A2881 RMK AO2 SLP759 P0000 T10061011 FZRANO
UNK PAUN Unalakleet, US Unalakleet Airport 27 34 9 -2/-4 28.82 PAUN 251256Z AUTO 08027G34KT 9SM -SN SCT080 M03/M04 A2882 RMK AO2 PK WND 08034/1248 SLP761 P0000 T10281044 FZRANO
KKA PAKK Koyuk, US Koyuk Alfred Adams Airport 14 20 10 0/-5 28.82 PAKK 251256Z AUTO 08014G20KT 10SM OVC045 M01/M05 A2882 RMK AO2 SLP769 T10061050 FZRANO
PTH PAPH Port Heiden, US Port Heiden Airport 18 26 10 3/1 28.85 PAPH 251256Z AUTO 26018G26KT 10SM -RA FEW016 BKN038 OVC046 03/01 A2885 RMK AO2 PK WND 26032/1206 SLP771 T00330011 PNO $
SLQ PASL Sleetmute, US Sleetmute Airport 7 20 10 3/0 28.86 PASL 251256Z AUTO 14007G20KT 110V210 10SM -RA BKN023 OVC029 04/01 A2886 RMK AO2 SLP764 P0001 T00390006
ILI PAIL Iliamna, US Iliamna Airport 36 57 10 2/1 28.86 PAIL 251253Z AUTO 10036G57KT 10SM FEW100 03/01 A2886 RMK AO2 PK WND 10057/1246 RAE24 SLP777 P0000 T00280011 TSNO
PAKX 18 26 10 5/0 28.87 PAKX 251255Z AUTO 07018G26KT 10SM SCT065 BKN080 05/00 A2887 RMK AO2
AKK PAKH Akhiok, US Akhiok Airport / 28.94 PAKH 251303Z AUTO FEW009 BKN016 OVC026 A2894 RMK AO2 PWINO FZRANO $
KVL PAVL Kivalina, US Kivalina Airport 34 41 7 -1/-5 28.94 PAVL 251253Z AUTO 11034G41KT 7SM SCT060 M01/M05 A2894 RMK AO2 PK WND 10041/1252 SLP800 T10111050 TSNO $
NLG PAOU Nelson Lagoon, US Nelson Lagoon Airport 16 19 10 2/1 28.95 PAOU 251312Z AUTO 26016G19KT 10SM SCT018 BKN033 BKN060 02/01 A2895 RMK AO2 RAE10 FZRANO PNO $
CWOB 34 41 -16/-18 28.95 CWOB 251300Z AUTO 32034G41KT ////SM FEW047 SCT060 BKN065 M16/M18 A2895
TLJ PATL Takotna, US Tatalina LRRS Airport 9 10 -4/-8 28.95 PATL 251255Z AUTO 03009KT 10SM BKN043 M05/M08 A2895 RMK AO2 SHSNB1001E1057B1113E1249 SLP826 T10491084
YVM CYVM Qikiqtarjuaq, CA Qikiqtarjuaq Airport 36 44 1 -4/-5 28.96 CYVM 251300Z 35036G44KT 1SM -SHSN BLSN OVC015 M04/M05 A2896 RMK BLSN6SC2 OCNL VIS 1/2 SLP808
OTZ PAOT Kotzebue, US Ralph Wien Memorial Airport 34 40 1.75 -4/-6 28.96 PAOT 251253Z AUTO 10034G40KT 1 3/4SM -SN BR OVC060 M04/M06 A2896 RMK AO2 PK WND 10042/1156 UPB1155E26B42E49SNE1155B1157E01B03E07B10E20B26E42B46E47B49 SLP806 P0000 T10441061 TSNO $

High pressure

Station
 
Location
 
Name
 
Wind
Knots
Gust
Knots
Vis
SM
Temp/Dew
C
Baro
inHg
METAR
 
POI SLPO Potosí, BO Capitan Nicolas Rojas Airport 4 6.21 15/4 30.74 SLPO 251300Z 24004KT 9999 NSC 15/04 Q1041
LPB SLLP La Paz / El Alto, BO El Alto International Airport 7 4.97 12/5 30.71 SLLP 251300Z 16007KT 8000 FEW010 12/05 Q1040
KJA UNKL Krasnoyarsk, RU Yemelyanovo Airport 0 6.21 -9/-11 30.71 UNKL 251300Z 00000MPS 9999 BKN033CB M09/M11 Q1040 R29/CLRD65 NOSIG RMK QFE754
OVB UNNT Novosibirsk, RU Tolmachevo Airport 2 6.21 -7/-9 30.71 UNNT 251300Z 05001MPS 9999 OVC033 M07/M09 Q1040 R16/810160 R07/810160 NOSIG RMK QFE770/1027
TOF UNTT Tomsk, RU Bogashevo Airport 2 6.21 -11/-14 30.71 UNTT 251300Z 10001MPS CAVOK M11/M14 Q1040 R21/450145 NOSIG RMK QFE765

Station
 
Location
 
Name
 
Wind
Knots
Gust
Knots
Vis
SM
Temp/Dew
C
Baro
inHg
METAR
 
ABA UNAA Abakan, RU Abakan Airport 6 6.21 -7/-11 30.68 UNAA 251300Z 33003MPS 9999 BKN024 M07/M11 Q1039 R02/CLRD65 NOSIG RMK QFE756
KEJ UNEE Kemerovo, RU Kemerovo Airport 4 6.21 -10/-12 30.68 UNEE 251300Z 01002MPS 9999 SCT020 M10/M12 Q1039 R23/950255 NOSIG RMK QFE756
ANS SPHY Andahuaylas, PE Andahuaylas Airport 5 6.21 11/3 30.65 SPHY 251300Z 36005KT 9999 FEW012 11/03 Q1038 RMK BIRD HAZARD RWY03/21 PP000
JUL SPJL Juliaca, PE Inca Manco Capac International Airport 2 6.21 13/1 30.65 SPJL 251300Z 33002KT CAVOK 13/01 Q1038 RMK TX22.5/TN4.8 PP000
BTK UIBB Bratsk, RU Bratsk Airport 4 6.21 -8/-10 30.65 UIBB 251300Z 35002MPS 320V020 9999 BKN042CB M08/M10 Q1038 R30/490537 NOSIG RMK QFE735/0980
BAX UNBB Barnaul, RU Barnaul Airport 4 0.75 -7/-8 30.65 UNBB 251300Z 04002MPS 1200 0100SW R24/P2000U FZFG SCT010 M07/M08 Q1038 R24/490150 NOSIG RMK QFE756
OMS UNOO Omsk, RU Omsk Central Airport 6 4.97 -9/-10 30.65 UNOO 251300Z 12003MPS 8000 -SN BKN009 M09/M10 Q1038 R25/190040 NOSIG RMK QFE770
PLX UASS Semey, KZ Semipalatinsk Airport 2 6.21 -18/-20 30.62 UASS 251230Z 18001MPS CAVOK M18/M20 Q1037 R26/49//39 NOSIG RMK QFE759/1012
ORU SLOR Oruro, BO Juan Mendoza Airport 5 6.21 17/1 30.62 SLOR 251300Z 18005KT 9999 FEW017 17/01 Q1037
PWQ UASP Pavlodar, KZ Pavlodar Airport 8 6.21 -6/-7 30.62 UASP 251300Z 08004MPS 9999 -SN OVC027 M06/M07 Q1037 R03/490155 NOSIG RMK QFE767/1023
IKT UIII Irkutsk, RU Irkutsk Airport 4 6.21 -14/-16 30.62 UIII 251300Z 03002MPS CAVOK M14/M16 Q1037 R30/810350 NOSIG RMK QFE732/0976
YZX CYZX Greenwood, CA CFB Greenwood 0 15 -5/-8 30.60 CYZX 251300Z 00000KT 15SM FEW160 OVC250 M05/M08 A3060 RMK AC2CI6 SLP364
CYAW Halifax, CA Halifax / CFB Shearwater Heliport 4 15 -3/-9 30.59 CYAW 251300Z 35004KT 15SM FEW100 BKN250 M03/M09 A3059 RMK AC1CI6 DA-2835FT SLP360
FLW LPFL Santa Cruz das Flores, PT Flores Airport 4 6.21 15/7 30.59 LPFL 251300Z VRB04KT 9999 FEW023 BKN040 15/07 Q1036
UKK UASK Ust Kamenogorsk, KZ Ust-Kamennogorsk Airport 0 4.35 -16/-17 30.59 UASK 251300Z 00000MPS 7000 SCT150 M16/M17 Q1036 R30/850245 NOSIG RMK QFE751/1001
UUD UIUU Ulan Ude, RU Ulan-Ude Airport (Mukhino) 4 6.21 -10/-14 30.59 UIUU 251300Z 32002MPS 300V020 9999 FEW046 M10/M14 Q1036 R26/820555 NOSIG RMK QFE732/0976
NJC USNN Nizhnevartovsk, RU Nizhnevartovsk Airport 10 6.21 -7/-8 30.59 USNN 251300Z 21005MPS 9999 OVC006 M07/M08 Q1036 R21/31//65 NOSIG RMK QFE772
YQI CYQI Yarmouth, CA Yarmouth Airport 6 15 -3/-7 30.57 CYQI 251300Z 11006KT 15SM FEW034 OVC140 M03/M07 A3057 RMK SC1AS7 SLP356
YQM CYQM Moncton, CA Greater Moncton Roméo LeBlanc International Airport 4 15 -8/-11 30.57 CYQM 251300Z 23004KT 15SM BKN130 M08/M11 A3057 RMK AC7 SLP359
CYCX Gagetown, CA CFB Gagetown Heliport 4 15 -8/-12 30.56 CYCX 251300Z 13004KT 100V160 15SM OVC100 M08/M12 A3056 RMK AC8 DA-3336FT SLP351
YHZ CYHZ Halifax, CA Halifax / Stanfield International Airport 4 15 -6/-9 30.56 CYHZ 251300Z 02004KT 310V030 15SM BKN170 M06/M09 A3056 RMK AC7 SLP359
YYG CYYG Charlottetown, CA Charlottetown Airport 4 15 -4/-7 30.56 CYYG 251300Z 27004KT 15SM FEW015 SCT028 OVC140 M04/M07 A3056 RMK SC1SC2AS5 SLP353
HOR LPHR Horta, PT Horta Airport 6 6.21 16/6 30.56 LPHR 251300Z 04006KT 320V100 9999 FEW020 BKN040 16/06 Q1035
CWSA 10 15 9 2/-6 30.55 CWSA 251300Z AUTO 02010G15KT 9SM OVC038 02/M06 A3055 RMK SLP349
YFC CYFC Fredericton, CA Fredericton Airport 4 9 -7/-10 30.55 CYFC 251300Z AUTO 13004KT 9SM OVC100 M07/M10 A3055 RMK SLP351
BHB KBHB Bar Harbor, US Hancock County-Bar Harbor Airport 4 10 -4/-8 30.54 KBHB 251256Z AUTO 04004KT 10SM SCT090 OVC110 M04/M09 A3054 RMK AO2 SLP344 T10441089 FZRANO
YQY CYQY Sydney, CA Sydney / J.A. Douglas McCurdy Airport 8 15 -2/-8 30.54 CYQY 251300Z 27008KT 15SM BKN030 BKN039 OVC240 M02/M08 A3054 RMK SC6SC1CI1 PRESRR SLP345
YSJ CYSJ Saint John, CA Saint John Airport 3 15 -6/-10 30.54 CYSJ 251300Z 07003KT 020V080 15SM BKN018 M06/M10 A3054 RMK SC7 SLP352
TER LPLA Praia da Vitória, PT Lajes Airport 6.21 15/7 30.53 LPLA 251300Z /////KT 9999 FEW025 SCT035 15/07 Q1034
CUZ SPZO Cusco, PE Alejandro Velasco Astete International Airport 3 6.21 15/4 30.53 SPZO 251300Z VRB03KT 9999 FEW043 SCT120 15/04 Q1034 NOSIG RMK BIRD HAZARD RWY 28 PP000
BGR KBGR Bangor, US Bangor International Airport 0 10 -5/-9 30.52 KBGR 251253Z 00000KT 10SM FEW085 BKN100 OVC120 M05/M09 A3052 RMK AO2 SLP340 T10501094
YGR CYGR ÃŽles-de-la-Madeleine, CA ÃŽles-de-la-Madeleine Airport 7 20 -2/-9 30.52 CYGR 251300Z 29007KT 20SM BKN030 M02/M09 A3052 RMK SC7 SLP338
YPS CYPD Port Hawkesbury, CA Port Hawkesbury Airport 4 9 -1/-8 30.52 CYPD 251300Z AUTO 04004KT 350V070 9SM BKN032 M01/M08 A3052 RMK SLP347
ZBF CZBF Bathurst, CA Bathurst Airport 5 9 -8/-12 30.52 CZBF 251300Z AUTO 20005KT 9SM SCT120 M08/M12 A3052 RMK SLP349
ISS KIWI Wiscasset, US Wiscasset Airport 3 10 -3/-8 30.51 KIWI 251253Z AUTO 06003KT 10SM OVC080 M03/M08 A3051 RMK AO2 SLP332 T10331083
KMLT Millinocket, US Millinocket Municipal Airport 5 10 -7/-11 30.51 KMLT 251253Z AUTO 16005KT 10SM BKN110 M07/M12 A3051 RMK AO2 SLP346 T10721117
RKD KRKD Rockland, US Knox County Regional Airport 4 10 0/-3 30.51 KRKD 251256Z AUTO 05004KT 10SM FEW022 BKN029 OVC085 M01/M03 A3051 RMK AO2 SLP334 T10061033 FZRANO
KOV UACK Kokshetau, KZ Kokshetau Airport 8 6.21 -5/-7 30.50 UACK 251200Z 15004MPS 9999 OVC016 M05/M07 Q1033 R20/090060 NOSIG RMK QFE750/1001
PDL LPPD Ponta Delgada, PT João Paulo II Airport 13 6.21 15/7 30.50 LPPD 251300Z 36013KT 310V030 9999 FEW025 15/07 Q1033
TSE UACC Astana, KZ Astana International Airport 6 6.21 -17/-19 30.50 UACC 251300Z 14003MPS CAVOK M17/M19 Q1033 R04/19//60 NOSIG RMK QFE742/0990
HTA UIAA Chita, RU Chita-Kadala Airport 6 6.21 -17/-21 30.50 UIAA 251300Z AUTO 26003MPS 9999 NCD M17/M21 Q1033 RMK QFE716/0954
SGC USRR Surgut, RU Surgut Airport 10 6.21 -5/-7 30.50 USRR 251300Z 20005MPS 9999 BKN013 M05/M07 Q1033 R25/19//50 NOSIG RMK QFE769
PEK ZBAA Beijing, CN Beijing Capital International Airport 6 6.21 2/-8 30.50 ZBAA 251300Z 36003MPS CAVOK 02/M08 Q1033 NOSIG
URC ZWWW Ürümqi, CN Ürümqi Diwopu International Airport 2 1.86 -6/-9 30.50 ZWWW 251300Z 05001MPS 3000 BR NSC M06/M09 Q1033 NOSIG
LEW KLEW Auburn/Lewiston, US Auburn Lewiston Municipal Airport 3 10 -5/-9 30.50 KLEW 251256Z AUTO 03003KT 10SM BKN023 OVC075 M05/M09 A3050 RMK AO2 SLP338 T10501094 FZRANO